sensor_id;sensor_type;location;lat;lon;timestamp;P1;durP1;ratioP1;P2;durP2;ratioP2
11018;SDS011;5563;52.296;6.806;2023-05-20T00:01:03;7.35;;;4.22;;
11018;SDS011;5563;52.296;6.806;2023-05-20T00:03:37;5.53;;;3.63;;
11018;SDS011;5563;52.296;6.806;2023-05-20T00:06:20;9.82;;;4.13;;
11018;SDS011;5563;52.296;6.806;2023-05-20T00:09:07;8.25;;;4.15;;
11018;SDS011;5563;52.296;6.806;2023-05-20T00:11:35;4.68;;;3.83;;
11018;SDS011;5563;52.296;6.806;2023-05-20T00:14:09;6.75;;;4.07;;
11018;SDS011;5563;52.296;6.806;2023-05-20T00:16:43;6.07;;;4.25;;
11018;SDS011;5563;52.296;6.806;2023-05-20T00:19:10;6.20;;;4.25;;
11018;SDS011;5563;52.296;6.806;2023-05-20T00:21:43;7.90;;;4.28;;
11018;SDS011;5563;52.296;6.806;2023-05-20T00:24:10;6.38;;;3.70;;
11018;SDS011;5563;52.296;6.806;2023-05-20T00:26:44;5.82;;;3.72;;
11018;SDS011;5563;52.296;6.806;2023-05-20T00:29:11;8.40;;;4.13;;
11018;SDS011;5563;52.296;6.806;2023-05-20T00:31:45;5.63;;;4.20;;
11018;SDS011;5563;52.296;6.806;2023-05-20T00:34:12;7.07;;;3.50;;
11018;SDS011;5563;52.296;6.806;2023-05-20T00:36:46;6.40;;;3.65;;
11018;SDS011;5563;52.296;6.806;2023-05-20T00:39:13;5.80;;;4.25;;
11018;SDS011;5563;52.296;6.806;2023-05-20T00:41:59;6.20;;;4.60;;
11018;SDS011;5563;52.296;6.806;2023-05-20T00:44:35;5.40;;;3.63;;
11018;SDS011;5563;52.296;6.806;2023-05-20T00:47:02;6.80;;;3.90;;
11018;SDS011;5563;52.296;6.806;2023-05-20T00:49:36;7.35;;;4.00;;
11018;SDS011;5563;52.296;6.806;2023-05-20T00:52:03;6.15;;;4.30;;
11018;SDS011;5563;52.296;6.806;2023-05-20T00:54:39;7.68;;;3.67;;
11018;SDS011;5563;52.296;6.806;2023-05-20T00:57:06;5.45;;;4.00;;
11018;SDS011;5563;52.296;6.806;2023-05-20T00:59:41;5.55;;;4.03;;
11018;SDS011;5563;52.296;6.806;2023-05-20T01:02:10;4.55;;;3.58;;
11018;SDS011;5563;52.296;6.806;2023-05-20T01:04:43;5.50;;;4.25;;
11018;SDS011;5563;52.296;6.806;2023-05-20T01:07:14;5.63;;;4.20;;
11018;SDS011;5563;52.296;6.806;2023-05-20T01:09:49;5.90;;;3.58;;
11018;SDS011;5563;52.296;6.806;2023-05-20T01:12:30;6.63;;;3.75;;
11018;SDS011;5563;52.296;6.806;2023-05-20T01:15:11;6.90;;;3.88;;
11018;SDS011;5563;52.296;6.806;2023-05-20T01:17:45;4.82;;;3.55;;
11018;SDS011;5563;52.296;6.806;2023-05-20T01:20:23;4.85;;;3.38;;
11018;SDS011;5563;52.296;6.806;2023-05-20T01:22:52;8.57;;;4.05;;
11018;SDS011;5563;52.296;6.806;2023-05-20T01:25:29;5.80;;;3.97;;
11018;SDS011;5563;52.296;6.806;2023-05-20T01:28:03;5.90;;;4.15;;
11018;SDS011;5563;52.296;6.806;2023-05-20T01:30:37;7.85;;;3.83;;
11018;SDS011;5563;52.296;6.806;2023-05-20T01:33:11;4.50;;;3.42;;
11018;SDS011;5563;52.296;6.806;2023-05-20T01:35:47;6.25;;;3.63;;
11018;SDS011;5563;52.296;6.806;2023-05-20T01:38:22;4.90;;;3.72;;
11018;SDS011;5563;52.296;6.806;2023-05-20T01:41:10;3.75;;;3.38;;
11018;SDS011;5563;52.296;6.806;2023-05-20T01:43:38;6.68;;;3.92;;
11018;SDS011;5563;52.296;6.806;2023-05-20T01:46:12;5.22;;;3.58;;
11018;SDS011;5563;52.296;6.806;2023-05-20T01:48:47;4.25;;;3.42;;
11018;SDS011;5563;52.296;6.806;2023-05-20T01:51:21;4.55;;;3.17;;
11018;SDS011;5563;52.296;6.806;2023-05-20T01:53:55;7.75;;;3.22;;
11018;SDS011;5563;52.296;6.806;2023-05-20T01:56:29;5.15;;;3.30;;
11018;SDS011;5563;52.296;6.806;2023-05-20T01:59:03;5.82;;;4.18;;
11018;SDS011;5563;52.296;6.806;2023-05-20T02:01:31;6.25;;;3.58;;
11018;SDS011;5563;52.296;6.806;2023-05-20T02:04:05;6.60;;;3.50;;
11018;SDS011;5563;52.296;6.806;2023-05-20T02:06:38;4.55;;;3.30;;
11018;SDS011;5563;52.296;6.806;2023-05-20T02:09:11;4.10;;;3.10;;
11018;SDS011;5563;52.296;6.806;2023-05-20T02:11:39;4.82;;;3.22;;
11018;SDS011;5563;52.296;6.806;2023-05-20T02:14:12;6.65;;;3.40;;
11018;SDS011;5563;52.296;6.806;2023-05-20T02:16:39;5.68;;;3.10;;
11018;SDS011;5563;52.296;6.806;2023-05-20T02:19:13;6.57;;;3.50;;
11018;SDS011;5563;52.296;6.806;2023-05-20T02:21:49;5.05;;;3.20;;
11018;SDS011;5563;52.296;6.806;2023-05-20T02:24:25;5.30;;;3.47;;
11018;SDS011;5563;52.296;6.806;2023-05-20T02:26:52;5.18;;;3.45;;
11018;SDS011;5563;52.296;6.806;2023-05-20T02:29:27;4.63;;;3.50;;
11018;SDS011;5563;52.296;6.806;2023-05-20T02:32:01;6.55;;;3.60;;
11018;SDS011;5563;52.296;6.806;2023-05-20T02:34:29;5.75;;;3.22;;
11018;SDS011;5563;52.296;6.806;2023-05-20T02:37:03;5.45;;;3.40;;
11018;SDS011;5563;52.296;6.806;2023-05-20T02:39:30;5.68;;;3.47;;
11018;SDS011;5563;52.296;6.806;2023-05-20T02:42:11;5.15;;;3.55;;
11018;SDS011;5563;52.296;6.806;2023-05-20T02:44:39;3.50;;;3.20;;
11018;SDS011;5563;52.296;6.806;2023-05-20T02:47:13;4.00;;;3.60;;
11018;SDS011;5563;52.296;6.806;2023-05-20T02:49:40;4.88;;;3.38;;
11018;SDS011;5563;52.296;6.806;2023-05-20T02:52:07;6.40;;;3.70;;
11018;SDS011;5563;52.296;6.806;2023-05-20T02:54:41;6.03;;;3.60;;
11018;SDS011;5563;52.296;6.806;2023-05-20T02:57:15;5.07;;;3.22;;
11018;SDS011;5563;52.296;6.806;2023-05-20T02:59:42;4.50;;;3.08;;
11018;SDS011;5563;52.296;6.806;2023-05-20T03:02:12;6.20;;;3.40;;
11018;SDS011;5563;52.296;6.806;2023-05-20T03:04:46;4.00;;;3.25;;
11018;SDS011;5563;52.296;6.806;2023-05-20T03:07:17;8.80;;;3.63;;
11018;SDS011;5563;52.296;6.806;2023-05-20T03:09:51;4.28;;;3.50;;
11018;SDS011;5563;52.296;6.806;2023-05-20T03:12:24;5.53;;;3.45;;
11018;SDS011;5563;52.296;6.806;2023-05-20T03:14:58;5.68;;;3.10;;
11018;SDS011;5563;52.296;6.806;2023-05-20T03:17:26;5.00;;;3.53;;
11018;SDS011;5563;52.296;6.806;2023-05-20T03:20:00;4.65;;;3.13;;
11018;SDS011;5563;52.296;6.806;2023-05-20T03:22:29;3.97;;;3.42;;
11018;SDS011;5563;52.296;6.806;2023-05-20T03:25:03;4.05;;;3.42;;
11018;SDS011;5563;52.296;6.806;2023-05-20T03:27:40;5.03;;;3.45;;
11018;SDS011;5563;52.296;6.806;2023-05-20T03:30:14;4.22;;;3.63;;
11018;SDS011;5563;52.296;6.806;2023-05-20T03:32:45;3.85;;;3.40;;
11018;SDS011;5563;52.296;6.806;2023-05-20T03:35:18;3.75;;;3.08;;
11018;SDS011;5563;52.296;6.806;2023-05-20T03:37:53;3.75;;;3.03;;
11018;SDS011;5563;52.296;6.806;2023-05-20T03:40:26;6.03;;;3.20;;
11018;SDS011;5563;52.296;6.806;2023-05-20T03:43:01;4.07;;;3.15;;
11018;SDS011;5563;52.296;6.806;2023-05-20T03:45:37;4.53;;;3.33;;
11018;SDS011;5563;52.296;6.806;2023-05-20T03:48:05;3.70;;;2.90;;
11018;SDS011;5563;52.296;6.806;2023-05-20T03:50:45;5.03;;;3.20;;
11018;SDS011;5563;52.296;6.806;2023-05-20T03:53:12;4.63;;;3.17;;
11018;SDS011;5563;52.296;6.806;2023-05-20T03:55:46;5.63;;;2.92;;
11018;SDS011;5563;52.296;6.806;2023-05-20T03:58:14;6.43;;;3.40;;
11018;SDS011;5563;52.296;6.806;2023-05-20T04:00:41;5.93;;;3.20;;
11018;SDS011;5563;52.296;6.806;2023-05-20T04:03:15;4.60;;;3.50;;
11018;SDS011;5563;52.296;6.806;2023-05-20T04:05:43;3.25;;;2.95;;
11018;SDS011;5563;52.296;6.806;2023-05-20T04:08:17;3.75;;;3.35;;
11018;SDS011;5563;52.296;6.806;2023-05-20T04:10:45;4.15;;;3.33;;
11018;SDS011;5563;52.296;6.806;2023-05-20T04:13:23;3.30;;;2.88;;
11018;SDS011;5563;52.296;6.806;2023-05-20T04:15:51;4.78;;;3.42;;
11018;SDS011;5563;52.296;6.806;2023-05-20T04:18:25;2.72;;;2.53;;
11018;SDS011;5563;52.296;6.806;2023-05-20T04:21:01;3.53;;;2.85;;
11018;SDS011;5563;52.296;6.806;2023-05-20T04:23:28;4.60;;;3.40;;
11018;SDS011;5563;52.296;6.806;2023-05-20T04:26:02;4.57;;;3.30;;
11018;SDS011;5563;52.296;6.806;2023-05-20T04:28:33;3.45;;;3.15;;
11018;SDS011;5563;52.296;6.806;2023-05-20T04:31:06;5.03;;;3.33;;
11018;SDS011;5563;52.296;6.806;2023-05-20T04:33:34;4.45;;;3.10;;
11018;SDS011;5563;52.296;6.806;2023-05-20T04:36:10;5.32;;;3.22;;
11018;SDS011;5563;52.296;6.806;2023-05-20T04:38:42;3.55;;;2.92;;
11018;SDS011;5563;52.296;6.806;2023-05-20T04:41:16;3.95;;;2.90;;
11018;SDS011;5563;52.296;6.806;2023-05-20T04:43:53;4.18;;;3.17;;
11018;SDS011;5563;52.296;6.806;2023-05-20T04:46:31;4.13;;;3.13;;
11018;SDS011;5563;52.296;6.806;2023-05-20T04:49:01;4.22;;;3.17;;
11018;SDS011;5563;52.296;6.806;2023-05-20T04:51:36;5.07;;;3.40;;
11018;SDS011;5563;52.296;6.806;2023-05-20T04:54:05;3.78;;;3.33;;
11018;SDS011;5563;52.296;6.806;2023-05-20T04:56:39;3.35;;;3.05;;
11018;SDS011;5563;52.296;6.806;2023-05-20T04:59:06;3.40;;;2.70;;
11018;SDS011;5563;52.296;6.806;2023-05-20T05:01:43;4.07;;;2.90;;
11018;SDS011;5563;52.296;6.806;2023-05-20T05:04:10;3.17;;;2.90;;
11018;SDS011;5563;52.296;6.806;2023-05-20T05:06:38;5.93;;;3.00;;
11018;SDS011;5563;52.296;6.806;2023-05-20T05:09:11;3.40;;;3.10;;
11018;SDS011;5563;52.296;6.806;2023-05-20T05:11:45;4.78;;;2.92;;
11018;SDS011;5563;52.296;6.806;2023-05-20T05:14:19;4.35;;;3.15;;
11018;SDS011;5563;52.296;6.806;2023-05-20T05:16:46;4.30;;;2.72;;
11018;SDS011;5563;52.296;6.806;2023-05-20T05:19:21;5.35;;;3.00;;
11018;SDS011;5563;52.296;6.806;2023-05-20T05:21:48;5.05;;;3.13;;
11018;SDS011;5563;52.296;6.806;2023-05-20T05:24:22;4.68;;;2.42;;
11018;SDS011;5563;52.296;6.806;2023-05-20T05:26:53;3.05;;;2.75;;
11018;SDS011;5563;52.296;6.806;2023-05-20T05:29:26;2.97;;;2.67;;
11018;SDS011;5563;52.296;6.806;2023-05-20T05:31:53;4.38;;;2.72;;
11018;SDS011;5563;52.296;6.806;2023-05-20T05:34:27;3.95;;;2.67;;
11018;SDS011;5563;52.296;6.806;2023-05-20T05:37:01;3.33;;;2.67;;
11018;SDS011;5563;52.296;6.806;2023-05-20T05:39:42;3.20;;;2.50;;
11018;SDS011;5563;52.296;6.806;2023-05-20T05:42:15;2.85;;;2.42;;
11018;SDS011;5563;52.296;6.806;2023-05-20T05:44:49;3.28;;;2.53;;
11018;SDS011;5563;52.296;6.806;2023-05-20T05:47:26;3.28;;;2.35;;
11018;SDS011;5563;52.296;6.806;2023-05-20T05:50:00;4.15;;;2.40;;
11018;SDS011;5563;52.296;6.806;2023-05-20T05:52:37;3.50;;;2.33;;
11018;SDS011;5563;52.296;6.806;2023-05-20T05:55:05;4.00;;;2.88;;
11018;SDS011;5563;52.296;6.806;2023-05-20T05:57:39;4.90;;;3.45;;
11018;SDS011;5563;52.296;6.806;2023-05-20T06:00:07;2.80;;;2.53;;
11018;SDS011;5563;52.296;6.806;2023-05-20T06:02:46;3.47;;;3.17;;
11018;SDS011;5563;52.296;6.806;2023-05-20T06:05:22;7.13;;;2.75;;
11018;SDS011;5563;52.296;6.806;2023-05-20T06:07:54;2.88;;;2.50;;
11018;SDS011;5563;52.296;6.806;2023-05-20T06:10:27;3.78;;;2.45;;
11018;SDS011;5563;52.296;6.806;2023-05-20T06:12:59;3.22;;;2.70;;
11018;SDS011;5563;52.296;6.806;2023-05-20T06:15:38;3.58;;;2.40;;
11018;SDS011;5563;52.296;6.806;2023-05-20T06:18:15;2.58;;;2.38;;
11018;SDS011;5563;52.296;6.806;2023-05-20T06:20:55;2.75;;;2.55;;
11018;SDS011;5563;52.296;6.806;2023-05-20T06:23:27;2.72;;;2.40;;
11018;SDS011;5563;52.296;6.806;2023-05-20T06:26:03;2.80;;;2.60;;
11018;SDS011;5563;52.296;6.806;2023-05-20T06:28:37;3.17;;;2.33;;
11018;SDS011;5563;52.296;6.806;2023-05-20T06:31:15;2.70;;;2.50;;
11018;SDS011;5563;52.296;6.806;2023-05-20T06:33:48;3.78;;;2.38;;
11018;SDS011;5563;52.296;6.806;2023-05-20T06:36:22;4.68;;;2.65;;
11018;SDS011;5563;52.296;6.806;2023-05-20T06:38:49;3.00;;;2.70;;
11018;SDS011;5563;52.296;6.806;2023-05-20T06:41:23;3.03;;;2.50;;
11018;SDS011;5563;52.296;6.806;2023-05-20T06:44:04;3.10;;;2.70;;
11018;SDS011;5563;52.296;6.806;2023-05-20T06:46:42;3.00;;;2.70;;
11018;SDS011;5563;52.296;6.806;2023-05-20T06:49:16;2.80;;;2.45;;
11018;SDS011;5563;52.296;6.806;2023-05-20T06:51:50;3.63;;;2.60;;
11018;SDS011;5563;52.296;6.806;2023-05-20T06:54:18;3.28;;;2.40;;
11018;SDS011;5563;52.296;6.806;2023-05-20T06:56:51;3.38;;;2.70;;
11018;SDS011;5563;52.296;6.806;2023-05-20T06:59:25;3.70;;;3.17;;
11018;SDS011;5563;52.296;6.806;2023-05-20T07:01:59;3.72;;;2.72;;
11018;SDS011;5563;52.296;6.806;2023-05-20T07:04:27;4.75;;;2.47;;
11018;SDS011;5563;52.296;6.806;2023-05-20T07:07:07;2.80;;;2.58;;
11018;SDS011;5563;52.296;6.806;2023-05-20T07:09:34;3.63;;;2.50;;
11018;SDS011;5563;52.296;6.806;2023-05-20T07:12:08;3.45;;;2.72;;
11018;SDS011;5563;52.296;6.806;2023-05-20T07:14:43;3.70;;;2.70;;
11018;SDS011;5563;52.296;6.806;2023-05-20T07:17:10;2.75;;;2.45;;
11018;SDS011;5563;52.296;6.806;2023-05-20T07:19:43;2.60;;;2.40;;
11018;SDS011;5563;52.296;6.806;2023-05-20T07:22:10;3.92;;;3.00;;
11018;SDS011;5563;52.296;6.806;2023-05-20T07:24:44;3.90;;;3.10;;
11018;SDS011;5563;52.296;6.806;2023-05-20T07:27:12;6.35;;;3.33;;
11018;SDS011;5563;52.296;6.806;2023-05-20T07:29:47;3.42;;;2.95;;
11018;SDS011;5563;52.296;6.806;2023-05-20T07:32:20;3.53;;;3.25;;
11018;SDS011;5563;52.296;6.806;2023-05-20T07:34:57;3.53;;;3.15;;
11018;SDS011;5563;52.296;6.806;2023-05-20T07:37:26;3.55;;;3.25;;
11018;SDS011;5563;52.296;6.806;2023-05-20T07:40:07;3.97;;;2.97;;
11018;SDS011;5563;52.296;6.806;2023-05-20T07:42:35;4.22;;;3.47;;
11018;SDS011;5563;52.296;6.806;2023-05-20T07:45:09;5.15;;;3.28;;
11018;SDS011;5563;52.296;6.806;2023-05-20T07:47:37;3.75;;;2.97;;
11018;SDS011;5563;52.296;6.806;2023-05-20T07:50:11;7.97;;;5.60;;
11018;SDS011;5563;52.296;6.806;2023-05-20T07:52:38;3.88;;;3.22;;
11018;SDS011;5563;52.296;6.806;2023-05-20T07:55:22;3.20;;;2.90;;
11018;SDS011;5563;52.296;6.806;2023-05-20T07:57:56;5.50;;;2.90;;
11018;SDS011;5563;52.296;6.806;2023-05-20T08:00:23;4.47;;;2.97;;
11018;SDS011;5563;52.296;6.806;2023-05-20T08:02:56;2.92;;;2.70;;
11018;SDS011;5563;52.296;6.806;2023-05-20T08:05:27;3.47;;;2.67;;
11018;SDS011;5563;52.296;6.806;2023-05-20T08:08:04;2.83;;;2.63;;
11018;SDS011;5563;52.296;6.806;2023-05-20T08:10:37;4.03;;;3.00;;
11018;SDS011;5563;52.296;6.806;2023-05-20T08:13:11;4.95;;;3.13;;
11018;SDS011;5563;52.296;6.806;2023-05-20T08:15:39;3.00;;;2.70;;
11018;SDS011;5563;52.296;6.806;2023-05-20T08:18:13;3.45;;;2.67;;
11018;SDS011;5563;52.296;6.806;2023-05-20T08:20:42;2.92;;;2.53;;
11018;SDS011;5563;52.296;6.806;2023-05-20T08:23:15;3.80;;;2.47;;
11018;SDS011;5563;52.296;6.806;2023-05-20T08:25:45;3.38;;;2.60;;
11018;SDS011;5563;52.296;6.806;2023-05-20T08:28:21;3.80;;;2.50;;
11018;SDS011;5563;52.296;6.806;2023-05-20T08:30:49;4.40;;;2.45;;
11018;SDS011;5563;52.296;6.806;2023-05-20T08:33:23;4.00;;;2.60;;
11018;SDS011;5563;52.296;6.806;2023-05-20T08:35:50;3.08;;;2.60;;
11018;SDS011;5563;52.296;6.806;2023-05-20T08:38:25;5.18;;;2.72;;
11018;SDS011;5563;52.296;6.806;2023-05-20T08:40:59;3.42;;;2.40;;
11018;SDS011;5563;52.296;6.806;2023-05-20T08:43:39;2.88;;;2.50;;
11018;SDS011;5563;52.296;6.806;2023-05-20T08:46:14;3.22;;;2.50;;
11018;SDS011;5563;52.296;6.806;2023-05-20T08:48:43;6.40;;;2.40;;
11018;SDS011;5563;52.296;6.806;2023-05-20T08:51:19;2.42;;;2.22;;
11018;SDS011;5563;52.296;6.806;2023-05-20T08:53:49;3.38;;;2.80;;
11018;SDS011;5563;52.296;6.806;2023-05-20T08:56:26;4.03;;;2.55;;
11018;SDS011;5563;52.296;6.806;2023-05-20T08:58:56;3.42;;;2.60;;
11018;SDS011;5563;52.296;6.806;2023-05-20T09:01:29;2.85;;;2.10;;
11018;SDS011;5563;52.296;6.806;2023-05-20T09:04:02;3.13;;;2.30;;
11018;SDS011;5563;52.296;6.806;2023-05-20T09:06:45;3.63;;;2.17;;
11018;SDS011;5563;52.296;6.806;2023-05-20T09:09:13;2.63;;;2.05;;
11018;SDS011;5563;52.296;6.806;2023-05-20T09:11:46;4.57;;;2.15;;
11018;SDS011;5563;52.296;6.806;2023-05-20T09:14:13;3.42;;;1.83;;
11018;SDS011;5563;52.296;6.806;2023-05-20T09:16:47;4.10;;;2.10;;
11018;SDS011;5563;52.296;6.806;2023-05-20T09:19:22;2.58;;;2.05;;
11018;SDS011;5563;52.296;6.806;2023-05-20T09:21:51;4.25;;;1.90;;
11018;SDS011;5563;52.296;6.806;2023-05-20T09:24:25;4.50;;;2.20;;
11018;SDS011;5563;52.296;6.806;2023-05-20T09:26:58;3.95;;;2.03;;
11018;SDS011;5563;52.296;6.806;2023-05-20T09:29:25;3.00;;;1.95;;
11018;SDS011;5563;52.296;6.806;2023-05-20T09:32:00;2.47;;;2.10;;
11018;SDS011;5563;52.296;6.806;2023-05-20T09:34:34;2.30;;;1.80;;
11018;SDS011;5563;52.296;6.806;2023-05-20T09:37:02;4.70;;;1.80;;
11018;SDS011;5563;52.296;6.806;2023-05-20T09:39:56;4.18;;;2.08;;
11018;SDS011;5563;52.296;6.806;2023-05-20T09:42:27;5.82;;;1.98;;
11018;SDS011;5563;52.296;6.806;2023-05-20T09:45:07;3.40;;;2.00;;
11018;SDS011;5563;52.296;6.806;2023-05-20T09:47:36;4.10;;;2.03;;
11018;SDS011;5563;52.296;6.806;2023-05-20T09:50:11;5.03;;;2.33;;
11018;SDS011;5563;52.296;6.806;2023-05-20T09:52:47;2.60;;;2.03;;
11018;SDS011;5563;52.296;6.806;2023-05-20T09:55:16;2.40;;;2.20;;
11018;SDS011;5563;52.296;6.806;2023-05-20T09:57:50;3.22;;;2.83;;
11018;SDS011;5563;52.296;6.806;2023-05-20T10:00:20;2.28;;;2.08;;
11018;SDS011;5563;52.296;6.806;2023-05-20T10:02:53;2.10;;;1.90;;
11018;SDS011;5563;52.296;6.806;2023-05-20T10:05:37;4.22;;;1.98;;
11018;SDS011;5563;52.296;6.806;2023-05-20T10:08:36;2.83;;;2.28;;
11018;SDS011;5563;52.296;6.806;2023-05-20T10:11:18;2.53;;;2.20;;
11018;SDS011;5563;52.296;6.806;2023-05-20T10:19:27;2.80;;;1.70;;
11018;SDS011;5563;52.296;6.806;2023-05-20T10:22:03;2.33;;;2.00;;
11018;SDS011;5563;52.296;6.806;2023-05-20T10:24:39;4.40;;;2.22;;
11018;SDS011;5563;52.296;6.806;2023-05-20T10:27:11;4.97;;;2.10;;
11018;SDS011;5563;52.296;6.806;2023-05-20T10:29:50;5.95;;;2.13;;
11018;SDS011;5563;52.296;6.806;2023-05-20T10:32:26;2.17;;;1.85;;
11018;SDS011;5563;52.296;6.806;2023-05-20T10:35:06;4.80;;;2.50;;
11018;SDS011;5563;52.296;6.806;2023-05-20T10:37:41;4.70;;;1.80;;
11018;SDS011;5563;52.296;6.806;2023-05-20T10:40:20;3.17;;;1.98;;
11018;SDS011;5563;52.296;6.806;2023-05-20T10:42:54;2.47;;;1.88;;
11018;SDS011;5563;52.296;6.806;2023-05-20T10:45:32;2.33;;;2.10;;
11018;SDS011;5563;52.296;6.806;2023-05-20T10:48:08;2.40;;;1.80;;
11018;SDS011;5563;52.296;6.806;2023-05-20T10:50:53;3.28;;;2.15;;
11018;SDS011;5563;52.296;6.806;2023-05-20T10:53:25;3.80;;;1.90;;
11018;SDS011;5563;52.296;6.806;2023-05-20T10:56:00;4.13;;;1.90;;
11018;SDS011;5563;52.296;6.806;2023-05-20T10:58:37;3.47;;;1.60;;
11018;SDS011;5563;52.296;6.806;2023-05-20T11:01:11;2.10;;;1.88;;
11018;SDS011;5563;52.296;6.806;2023-05-20T11:03:42;5.00;;;1.90;;
11018;SDS011;5563;52.296;6.806;2023-05-20T11:06:17;3.83;;;2.20;;
11018;SDS011;5563;52.296;6.806;2023-05-20T11:08:50;4.65;;;1.85;;
11018;SDS011;5563;52.296;6.806;2023-05-20T11:11:17;2.58;;;1.90;;
11018;SDS011;5563;52.296;6.806;2023-05-20T11:13:51;3.15;;;1.80;;
11018;SDS011;5563;52.296;6.806;2023-05-20T11:16:24;2.45;;;2.00;;
11018;SDS011;5563;52.296;6.806;2023-05-20T11:18:58;3.55;;;1.90;;
11018;SDS011;5563;52.296;6.806;2023-05-20T11:21:31;3.15;;;2.70;;
11018;SDS011;5563;52.296;6.806;2023-05-20T11:24:05;2.10;;;1.90;;
11018;SDS011;5563;52.296;6.806;2023-05-20T11:26:41;2.95;;;1.73;;
11018;SDS011;5563;52.296;6.806;2023-05-20T11:29:08;3.03;;;1.90;;
11018;SDS011;5563;52.296;6.806;2023-05-20T11:31:41;2.50;;;1.80;;
11018;SDS011;5563;52.296;6.806;2023-05-20T11:34:14;3.90;;;1.73;;
11018;SDS011;5563;52.296;6.806;2023-05-20T11:36:55;3.55;;;1.95;;
11018;SDS011;5563;52.296;6.806;2023-05-20T11:39:37;2.85;;;1.90;;
11018;SDS011;5563;52.296;6.806;2023-05-20T11:42:19;4.75;;;1.90;;
11018;SDS011;5563;52.296;6.806;2023-05-20T11:44:53;5.55;;;2.90;;
11018;SDS011;5563;52.296;6.806;2023-05-20T11:47:23;1.80;;;1.70;;
11018;SDS011;5563;52.296;6.806;2023-05-20T11:49:53;4.88;;;2.00;;
11018;SDS011;5563;52.296;6.806;2023-05-20T11:52:28;2.10;;;1.90;;
11018;SDS011;5563;52.296;6.806;2023-05-20T11:54:55;2.20;;;1.73;;
11018;SDS011;5563;52.296;6.806;2023-05-20T11:57:29;2.63;;;1.67;;
11018;SDS011;5563;52.296;6.806;2023-05-20T12:00:03;3.35;;;1.98;;
11018;SDS011;5563;52.296;6.806;2023-05-20T12:02:33;3.72;;;1.92;;
11018;SDS011;5563;52.296;6.806;2023-05-20T12:05:06;2.17;;;1.83;;
11018;SDS011;5563;52.296;6.806;2023-05-20T12:07:41;1.88;;;1.63;;
11018;SDS011;5563;52.296;6.806;2023-05-20T12:10:08;2.88;;;1.60;;
11018;SDS011;5563;52.296;6.806;2023-05-20T12:12:42;5.18;;;2.08;;
11018;SDS011;5563;52.296;6.806;2023-05-20T12:15:10;3.20;;;1.80;;
11018;SDS011;5563;52.296;6.806;2023-05-20T12:17:45;2.97;;;1.90;;
11018;SDS011;5563;52.296;6.806;2023-05-20T12:20:21;2.53;;;1.48;;
11018;SDS011;5563;52.296;6.806;2023-05-20T12:22:56;4.93;;;2.13;;
11018;SDS011;5563;52.296;6.806;2023-05-20T12:25:24;3.10;;;1.85;;
11018;SDS011;5563;52.296;6.806;2023-05-20T12:27:57;2.20;;;1.55;;
11018;SDS011;5563;52.296;6.806;2023-05-20T12:30:35;2.58;;;1.60;;
11018;SDS011;5563;52.296;6.806;2023-05-20T12:33:03;2.95;;;1.50;;
11018;SDS011;5563;52.296;6.806;2023-05-20T12:35:37;2.58;;;1.58;;
11018;SDS011;5563;52.296;6.806;2023-05-20T12:38:05;2.45;;;1.70;;
11018;SDS011;5563;52.296;6.806;2023-05-20T12:40:46;2.03;;;1.83;;
11018;SDS011;5563;52.296;6.806;2023-05-20T12:43:13;1.40;;;1.30;;
11018;SDS011;5563;52.296;6.806;2023-05-20T12:45:46;1.90;;;1.70;;
11018;SDS011;5563;52.296;6.806;2023-05-20T12:48:20;2.17;;;1.45;;
11018;SDS011;5563;52.296;6.806;2023-05-20T12:50:53;2.30;;;1.70;;
11018;SDS011;5563;52.296;6.806;2023-05-20T12:53:20;2.65;;;1.80;;
11018;SDS011;5563;52.296;6.806;2023-05-20T12:55:53;3.72;;;1.70;;
11018;SDS011;5563;52.296;6.806;2023-05-20T12:58:20;2.22;;;1.52;;
11018;SDS011;5563;52.296;6.806;2023-05-20T13:00:54;3.17;;;1.65;;
11018;SDS011;5563;52.296;6.806;2023-05-20T13:03:28;2.72;;;1.70;;
11018;SDS011;5563;52.296;6.806;2023-05-20T13:06:02;6.05;;;2.13;;
11018;SDS011;5563;52.296;6.806;2023-05-20T13:08:29;2.60;;;1.60;;
11018;SDS011;5563;52.296;6.806;2023-05-20T13:10:56;2.35;;;1.50;;
11018;SDS011;5563;52.296;6.806;2023-05-20T13:13:29;1.92;;;1.50;;
11018;SDS011;5563;52.296;6.806;2023-05-20T13:15:56;1.60;;;1.38;;
11018;SDS011;5563;52.296;6.806;2023-05-20T13:18:29;1.63;;;1.52;;
11018;SDS011;5563;52.296;6.806;2023-05-20T13:20:57;2.20;;;1.63;;
11018;SDS011;5563;52.296;6.806;2023-05-20T13:23:30;4.68;;;1.50;;
11018;SDS011;5563;52.296;6.806;2023-05-20T13:25:57;2.10;;;1.88;;
11018;SDS011;5563;52.296;6.806;2023-05-20T13:28:30;3.35;;;1.60;;
11018;SDS011;5563;52.296;6.806;2023-05-20T13:30:57;2.60;;;1.67;;
11018;SDS011;5563;52.296;6.806;2023-05-20T13:33:31;3.30;;;1.67;;
11018;SDS011;5563;52.296;6.806;2023-05-20T13:35:58;3.38;;;1.80;;
11018;SDS011;5563;52.296;6.806;2023-05-20T13:38:31;2.38;;;1.65;;
11018;SDS011;5563;52.296;6.806;2023-05-20T13:41:07;3.67;;;1.55;;
11018;SDS011;5563;52.296;6.806;2023-05-20T13:43:40;2.97;;;1.63;;
11018;SDS011;5563;52.296;6.806;2023-05-20T13:46:15;1.77;;;1.67;;
11018;SDS011;5563;52.296;6.806;2023-05-20T13:48:49;5.10;;;1.70;;
11018;SDS011;5563;52.296;6.806;2023-05-20T13:51:16;1.60;;;1.50;;
11018;SDS011;5563;52.296;6.806;2023-05-20T13:53:42;2.50;;;1.33;;
11018;SDS011;5563;52.296;6.806;2023-05-20T13:56:16;4.63;;;1.70;;
11018;SDS011;5563;52.296;6.806;2023-05-20T13:58:43;1.85;;;1.58;;
11018;SDS011;5563;52.296;6.806;2023-05-20T14:01:16;2.30;;;1.42;;
11018;SDS011;5563;52.296;6.806;2023-05-20T14:03:43;4.22;;;1.60;;
11018;SDS011;5563;52.296;6.806;2023-05-20T14:06:18;3.25;;;1.60;;
11018;SDS011;5563;52.296;6.806;2023-05-20T14:08:45;2.53;;;1.67;;
11018;SDS011;5563;52.296;6.806;2023-05-20T14:11:18;2.05;;;1.58;;
11018;SDS011;5563;52.296;6.806;2023-05-20T14:13:46;2.50;;;1.85;;
11018;SDS011;5563;52.296;6.806;2023-05-20T14:16:20;4.18;;;1.70;;
11018;SDS011;5563;52.296;6.806;2023-05-20T14:18:47;2.47;;;1.67;;
11018;SDS011;5563;52.296;6.806;2023-05-20T14:21:20;3.05;;;1.67;;
11018;SDS011;5563;52.296;6.806;2023-05-20T14:23:53;2.83;;;1.80;;
11018;SDS011;5563;52.296;6.806;2023-05-20T14:26:27;2.13;;;1.60;;
11018;SDS011;5563;52.296;6.806;2023-05-20T14:28:54;2.80;;;1.65;;
11018;SDS011;5563;52.296;6.806;2023-05-20T14:31:34;2.38;;;1.65;;
11018;SDS011;5563;52.296;6.806;2023-05-20T14:34:10;1.88;;;1.50;;
11018;SDS011;5563;52.296;6.806;2023-05-20T14:36:38;3.17;;;1.63;;
11018;SDS011;5563;52.296;6.806;2023-05-20T14:39:11;2.88;;;1.90;;
11018;SDS011;5563;52.296;6.806;2023-05-20T14:41:51;2.55;;;1.90;;
11018;SDS011;5563;52.296;6.806;2023-05-20T14:44:24;2.17;;;1.88;;
11018;SDS011;5563;52.296;6.806;2023-05-20T14:46:51;1.48;;;1.38;;
11018;SDS011;5563;52.296;6.806;2023-05-20T14:49:25;1.98;;;1.80;;
11018;SDS011;5563;52.296;6.806;2023-05-20T14:51:58;2.65;;;1.73;;
11018;SDS011;5563;52.296;6.806;2023-05-20T14:54:32;2.05;;;1.75;;
11018;SDS011;5563;52.296;6.806;2023-05-20T14:56:59;2.28;;;1.55;;
11018;SDS011;5563;52.296;6.806;2023-05-20T14:59:32;2.58;;;1.90;;
11018;SDS011;5563;52.296;6.806;2023-05-20T15:02:02;1.63;;;1.33;;
11018;SDS011;5563;52.296;6.806;2023-05-20T15:04:31;1.85;;;1.70;;
11018;SDS011;5563;52.296;6.806;2023-05-20T15:07:05;1.90;;;1.70;;
11018;SDS011;5563;52.296;6.806;2023-05-20T15:09:32;2.72;;;1.67;;
11018;SDS011;5563;52.296;6.806;2023-05-20T15:12:07;2.05;;;1.83;;
11018;SDS011;5563;52.296;6.806;2023-05-20T15:14:35;2.60;;;1.58;;
11018;SDS011;5563;52.296;6.806;2023-05-20T15:17:08;2.22;;;1.70;;
11018;SDS011;5563;52.296;6.806;2023-05-20T15:19:35;3.03;;;2.72;;
11018;SDS011;5563;52.296;6.806;2023-05-20T15:22:11;3.17;;;1.85;;
11018;SDS011;5563;52.296;6.806;2023-05-20T15:24:38;3.28;;;1.63;;
11018;SDS011;5563;52.296;6.806;2023-05-20T15:27:12;2.03;;;1.70;;
11018;SDS011;5563;52.296;6.806;2023-05-20T15:29:39;3.15;;;1.65;;
11018;SDS011;5563;52.296;6.806;2023-05-20T15:32:13;1.80;;;1.60;;
11018;SDS011;5563;52.296;6.806;2023-05-20T15:34:46;1.63;;;1.40;;
11018;SDS011;5563;52.296;6.806;2023-05-20T15:37:19;2.35;;;1.55;;
11018;SDS011;5563;52.296;6.806;2023-05-20T15:39:47;2.95;;;1.50;;